sensor_id;sensor_type;location;lat;lon;timestamp;pressure;altitude;pressure_sealevel;temperature;humidity
78407;BME280;67692;51.074;-1.790;2023-11-19T00:00:51;100412.91;;;11.11;100.00
78407;BME280;67692;51.074;-1.790;2023-11-19T00:03:18;100411.50;;;11.07;100.00
78407;BME280;67692;51.074;-1.790;2023-11-19T00:05:44;100419.97;;;11.09;100.00
78407;BME280;67692;51.074;-1.790;2023-11-19T00:08:11;100421.03;;;11.06;100.00
78407;BME280;67692;51.074;-1.790;2023-11-19T00:10:39;100435.50;;;11.09;100.00
78407;BME280;67692;51.074;-1.790;2023-11-19T00:13:05;100429.03;;;11.03;100.00
78407;BME280;67692;51.074;-1.790;2023-11-19T00:15:32;100427.38;;;11.02;100.00
78407;BME280;67692;51.074;-1.790;2023-11-19T00:17:58;100422.22;;;11.02;100.00
78407;BME280;67692;51.074;-1.790;2023-11-19T00:20:28;100427.03;;;11.07;100.00
78407;BME280;67692;51.074;-1.790;2023-11-19T00:22:54;100418.31;;;11.08;100.00
78407;BME280;67692;51.074;-1.790;2023-11-19T00:25:21;100425.72;;;11.12;100.00
78407;BME280;67692;51.074;-1.790;2023-11-19T00:27:49;100421.84;;;11.07;100.00
78407;BME280;67692;51.074;-1.790;2023-11-19T00:30:16;100420.19;;;11.06;100.00
78407;BME280;67692;51.074;-1.790;2023-11-19T00:32:42;100424.31;;;11.08;100.00
78407;BME280;67692;51.074;-1.790;2023-11-19T00:35:09;100432.09;;;11.08;100.00
78407;BME280;67692;51.074;-1.790;2023-11-19T00:37:36;100415.97;;;11.05;100.00
78407;BME280;67692;51.074;-1.790;2023-11-19T00:40:03;100419.97;;;11.09;100.00
78407;BME280;67692;51.074;-1.790;2023-11-19T00:42:31;100429.03;;;11.03;100.00
78407;BME280;67692;51.074;-1.790;2023-11-19T00:44:59;100420.19;;;11.06;100.00
78407;BME280;67692;51.074;-1.790;2023-11-19T00:47:26;100419.97;;;11.09;100.00
78407;BME280;67692;51.074;-1.790;2023-11-19T00:49:53;100405.47;;;11.06;100.00
78407;BME280;67692;51.074;-1.790;2023-11-19T00:52:20;100404.78;;;11.04;100.00
78407;BME280;67692;51.074;-1.790;2023-11-19T00:54:47;100398.88;;;11.02;100.00
78407;BME280;67692;51.074;-1.790;2023-11-19T00:57:13;100402.44;;;11.01;100.00
78407;BME280;67692;51.074;-1.790;2023-11-19T00:59:41;100391.25;;;11.00;100.00
78407;BME280;67692;51.074;-1.790;2023-11-19T01:02:09;100394.78;;;10.99;100.00
78407;BME280;67692;51.074;-1.790;2023-11-19T01:04:36;100388.66;;;11.00;100.00
78407;BME280;67692;51.074;-1.790;2023-11-19T01:07:04;100382.97;;;10.95;100.00
78407;BME280;67692;51.074;-1.790;2023-11-19T01:09:31;100376.25;;;10.93;100.00
78407;BME280;67692;51.074;-1.790;2023-11-19T01:11:59;100377.31;;;10.90;100.00
78407;BME280;67692;51.074;-1.790;2023-11-19T01:14:26;100373.91;;;10.90;100.00
78407;BME280;67692;51.074;-1.790;2023-11-19T01:16:53;100372.13;;;10.90;100.00
78407;BME280;67692;51.074;-1.790;2023-11-19T01:19:21;100372.97;;;10.91;100.00
78407;BME280;67692;51.074;-1.790;2023-11-19T01:21:48;100375.91;;;10.86;100.00
78407;BME280;67692;51.074;-1.790;2023-11-19T01:24:15;100381.09;;;10.86;100.00
78407;BME280;67692;51.074;-1.790;2023-11-19T01:26:43;100387.41;;;10.82;100.00
78407;BME280;67692;51.074;-1.790;2023-11-19T01:29:10;100389.28;;;10.80;100.00
78407;BME280;67692;51.074;-1.790;2023-11-19T01:31:38;100384.72;;;10.84;100.00
78407;BME280;67692;51.074;-1.790;2023-11-19T01:34:05;100394.97;;;10.85;100.00
78407;BME280;67692;51.074;-1.790;2023-11-19T01:36:33;100400.88;;;10.87;100.00
78407;BME280;67692;51.074;-1.790;2023-11-19T01:39:00;100394.75;;;10.88;100.00
78407;BME280;67692;51.074;-1.790;2023-11-19T01:41:26;100389.78;;;10.85;100.00
78407;BME280;67692;51.074;-1.790;2023-11-19T01:43:53;100393.09;;;10.87;100.00
78407;BME280;67692;51.074;-1.790;2023-11-19T01:46:19;100387.22;;;10.85;100.00
78407;BME280;67692;51.074;-1.790;2023-11-19T01:48:46;100389.06;;;10.83;100.00
78407;BME280;67692;51.074;-1.790;2023-11-19T01:51:13;100384.81;;;10.82;100.00
78407;BME280;67692;51.074;-1.790;2023-11-19T01:53:43;100383.88;;;10.83;100.00
78407;BME280;67692;51.074;-1.790;2023-11-19T01:56:10;100382.47;;;10.79;100.00
78407;BME280;67692;51.074;-1.790;2023-11-19T01:58:38;100380.81;;;10.78;100.00
78407;BME280;67692;51.074;-1.790;2023-11-19T02:01:06;100378.94;;;10.80;100.00
78407;BME280;67692;51.074;-1.790;2023-11-19T02:03:33;100380.22;;;10.75;100.00
78407;BME280;67692;51.074;-1.790;2023-11-19T02:06:00;100376.09;;;10.72;100.00
78407;BME280;67692;51.074;-1.790;2023-11-19T02:08:27;100370.09;;;10.71;100.00
78407;BME280;67692;51.074;-1.790;2023-11-19T02:10:56;100368.53;;;10.69;100.00
78407;BME280;67692;51.074;-1.790;2023-11-19T02:13:23;100362.41;;;10.70;100.00
78407;BME280;67692;51.074;-1.790;2023-11-19T02:15:50;100359.13;;;10.68;100.00
78407;BME280;67692;51.074;-1.790;2023-11-19T02:18:17;100347.81;;;10.69;100.00
78407;BME280;67692;51.074;-1.790;2023-11-19T02:20:44;100337.47;;;10.69;100.00
78407;BME280;67692;51.074;-1.790;2023-11-19T02:23:11;100323.59;;;10.70;100.00
78407;BME280;67692;51.074;-1.790;2023-11-19T02:25:38;100315.94;;;10.68;100.00
78407;BME280;67692;51.074;-1.790;2023-11-19T02:28:08;100313.59;;;10.65;100.00
78407;BME280;67692;51.074;-1.790;2023-11-19T02:30:37;100314.63;;;10.63;100.00
78407;BME280;67692;51.074;-1.790;2023-11-19T02:33:04;100316.28;;;10.64;100.00
78407;BME280;67692;51.074;-1.790;2023-11-19T02:35:32;100328.28;;;10.65;100.00
78407;BME280;67692;51.074;-1.790;2023-11-19T02:37:59;100332.41;;;10.67;100.00
78407;BME280;67692;51.074;-1.790;2023-11-19T02:40:26;100337.25;;;10.72;100.00
78407;BME280;67692;51.074;-1.790;2023-11-19T02:42:52;100341.50;;;10.73;100.00
78407;BME280;67692;51.074;-1.790;2023-11-19T02:45:21;100340.06;;;10.69;100.00
78407;BME280;67692;51.074;-1.790;2023-11-19T02:47:49;100325.59;;;10.66;100.00
78407;BME280;67692;51.074;-1.790;2023-11-19T02:50:18;100336.53;;;10.70;100.00
78407;BME280;67692;51.074;-1.790;2023-11-19T02:52:51;100335.72;;;10.69;100.00
78407;BME280;67692;51.074;-1.790;2023-11-19T02:55:18;100327.03;;;10.70;100.00
78407;BME280;67692;51.074;-1.790;2023-11-19T02:57:45;100324.53;;;10.69;100.00
78407;BME280;67692;51.074;-1.790;2023-11-19T03:00:14;100323.59;;;10.70;100.00
78407;BME280;67692;51.074;-1.790;2023-11-19T03:02:43;100320.16;;;10.69;100.00
78407;BME280;67692;51.074;-1.790;2023-11-19T03:05:12;100325.34;;;10.69;100.00
78407;BME280;67692;51.074;-1.790;2023-11-19T03:07:40;100326.41;;;10.67;100.00
78407;BME280;67692;51.074;-1.790;2023-11-19T03:10:09;100324.75;;;10.66;100.00
78407;BME280;67692;51.074;-1.790;2023-11-19T03:12:39;100328.88;;;10.68;100.00
78407;BME280;67692;51.074;-1.790;2023-11-19T03:15:07;100326.16;;;10.70;100.00
78407;BME280;67692;51.074;-1.790;2023-11-19T03:17:35;100332.22;;;10.70;100.00
78407;BME280;67692;51.074;-1.790;2023-11-19T03:20:04;100308.91;;;10.70;100.00
78407;BME280;67692;51.074;-1.790;2023-11-19T03:22:32;100310.63;;;10.70;100.00
78407;BME280;67692;51.074;-1.790;2023-11-19T03:24:59;100306.41;;;10.69;100.00
78407;BME280;67692;51.074;-1.790;2023-11-19T03:27:25;100305.69;;;10.67;100.00
78407;BME280;67692;51.074;-1.790;2023-11-19T03:29:52;100303.22;;;10.65;100.00
78407;BME280;67692;51.074;-1.790;2023-11-19T03:32:19;100304.28;;;10.63;100.00
78407;BME280;67692;51.074;-1.790;2023-11-19T03:34:45;100297.47;;;10.62;100.00
78407;BME280;67692;51.074;-1.790;2023-11-19T03:37:13;100301.00;;;10.61;100.00
78407;BME280;67692;51.074;-1.790;2023-11-19T03:39:41;100294.75;;;10.63;100.00
78407;BME280;67692;51.074;-1.790;2023-11-19T03:42:08;100289.69;;;10.62;100.00
78407;BME280;67692;51.074;-1.790;2023-11-19T03:44:35;100290.63;;;10.61;100.00
78407;BME280;67692;51.074;-1.790;2023-11-19T03:47:01;100280.28;;;10.61;100.00
78407;BME280;67692;51.074;-1.790;2023-11-19T03:49:28;100288.88;;;10.61;100.00
78407;BME280;67692;51.074;-1.790;2023-11-19T03:51:54;100289.81;;;10.60;100.00
78407;BME280;67692;51.074;-1.790;2023-11-19T03:54:22;100296.03;;;10.58;100.00
78407;BME280;67692;51.074;-1.790;2023-11-19T03:56:49;100293.09;;;10.62;100.00
78407;BME280;67692;51.074;-1.790;2023-11-19T03:59:15;100293.94;;;10.63;100.00
78407;BME280;67692;51.074;-1.790;2023-11-19T04:01:42;100294.16;;;10.60;100.00
78407;BME280;67692;51.074;-1.790;2023-11-19T04:04:08;100295.00;;;10.60;100.00
78407;BME280;67692;51.074;-1.790;2023-11-19T04:06:35;100286.75;;;10.66;100.00
78407;BME280;67692;51.074;-1.790;2023-11-19T04:09:02;100278.16;;;10.66;100.00
78407;BME280;67692;51.074;-1.790;2023-11-19T04:11:30;100288.50;;;10.66;100.00
78407;BME280;67692;51.074;-1.790;2023-11-19T04:13:57;100284.97;;;10.67;100.00
78407;BME280;67692;51.074;-1.790;2023-11-19T04:16:27;100286.63;;;10.68;100.00
78407;BME280;67692;51.074;-1.790;2023-11-19T04:18:54;100286.63;;;10.68;100.00
78407;BME280;67692;51.074;-1.790;2023-11-19T04:21:21;100285.81;;;10.67;100.00
78407;BME280;67692;51.074;-1.790;2023-11-19T04:23:48;100292.63;;;10.68;100.00
78407;BME280;67692;51.074;-1.790;2023-11-19T04:26:15;100285.69;;;10.69;100.00
78407;BME280;67692;51.074;-1.790;2023-11-19T04:28:43;100285.91;;;10.66;100.00
78407;BME280;67692;51.074;-1.790;2023-11-19T04:31:09;100302.88;;;10.70;100.00
78407;BME280;67692;51.074;-1.790;2023-11-19T04:33:36;100299.25;;;10.72;100.00
78407;BME280;67692;51.074;-1.790;2023-11-19T04:36:03;100297.47;;;10.73;100.00
78407;BME280;67692;51.074;-1.790;2023-11-19T04:38:30;100284.53;;;10.73;100.00
78407;BME280;67692;51.074;-1.790;2023-11-19T04:40:56;100292.41;;;10.71;100.00
78407;BME280;67692;51.074;-1.790;2023-11-19T04:43:23;100298.41;;;10.72;100.00
78407;BME280;67692;51.074;-1.790;2023-11-19T04:45:51;100295.94;;;10.70;100.00
78407;BME280;67692;51.074;-1.790;2023-11-19T04:48:17;100298.63;;;10.69;100.00
78407;BME280;67692;51.074;-1.790;2023-11-19T04:50:44;100297.69;;;10.70;100.00
78407;BME280;67692;51.074;-1.790;2023-11-19T04:53:11;100295.84;;;10.72;100.00
78407;BME280;67692;51.074;-1.790;2023-11-19T04:55:39;100293.00;;;10.75;100.00
78407;BME280;67692;51.074;-1.790;2023-11-19T04:58:06;100282.16;;;10.70;100.00
78407;BME280;67692;51.074;-1.790;2023-11-19T05:00:32;100283.22;;;10.67;100.00
78407;BME280;67692;51.074;-1.790;2023-11-19T05:03:00;100282.38;;;10.67;100.00
78407;BME280;67692;51.074;-1.790;2023-11-19T05:05:27;100277.09;;;10.68;100.00
78407;BME280;67692;51.074;-1.790;2023-11-19T05:07:54;100279.56;;;10.70;100.00
78407;BME280;67692;51.074;-1.790;2023-11-19T05:10:21;100271.69;;;10.71;100.00
78407;BME280;67692;51.074;-1.790;2023-11-19T05:12:48;100271.69;;;10.71;100.00
78407;BME280;67692;51.074;-1.790;2023-11-19T05:15:15;100253.66;;;10.70;100.00
78407;BME280;67692;51.074;-1.790;2023-11-19T05:17:41;100258.13;;;10.68;100.00
78407;BME280;67692;51.074;-1.790;2023-11-19T05:20:10;100246.38;;;10.64;100.00
78407;BME280;67692;51.074;-1.790;2023-11-19T05:22:39;100253.09;;;10.66;100.00
78407;BME280;67692;51.074;-1.790;2023-11-19T05:25:06;100260.72;;;10.68;100.00
78407;BME280;67692;51.074;-1.790;2023-11-19T05:27:33;100248.72;;;10.67;100.00
78407;BME280;67692;51.074;-1.790;2023-11-19T05:30:00;100253.91;;;10.67;100.00
78407;BME280;67692;51.074;-1.790;2023-11-19T05:32:26;100260.53;;;10.71;100.00
78407;BME280;67692;51.074;-1.790;2023-11-19T05:34:53;100259.09;;;10.67;100.00
78407;BME280;67692;51.074;-1.790;2023-11-19T05:37:21;100249.66;;;10.66;100.00
78407;BME280;67692;51.074;-1.790;2023-11-19T05:39:47;100259.44;;;10.62;100.00
78407;BME280;67692;51.074;-1.790;2023-11-19T05:42:14;100246.38;;;10.64;100.00
78407;BME280;67692;51.074;-1.790;2023-11-19T05:44:41;100253.56;;;10.60;99.07
78407;BME280;67692;51.074;-1.790;2023-11-19T05:47:07;100259.56;;;10.61;98.66
78407;BME280;67692;51.074;-1.790;2023-11-19T05:49:34;100256.16;;;10.60;99.18
78407;BME280;67692;51.074;-1.790;2023-11-19T05:52:00;100267.56;;;10.58;98.16
78407;BME280;67692;51.074;-1.790;2023-11-19T05:54:30;100267.56;;;10.58;97.70
78407;BME280;67692;51.074;-1.790;2023-11-19T05:56:58;100276.97;;;10.59;98.42
78407;BME280;67692;51.074;-1.790;2023-11-19T05:59:25;100271.56;;;10.62;98.66
78407;BME280;67692;51.074;-1.790;2023-11-19T06:01:51;100266.38;;;10.62;97.45
78407;BME280;67692;51.074;-1.790;2023-11-19T06:04:18;100266.63;;;10.59;97.58
78407;BME280;67692;51.074;-1.790;2023-11-19T06:06:44;100262.41;;;10.58;98.12
78407;BME280;67692;51.074;-1.790;2023-11-19T06:09:11;100253.81;;;10.57;98.38
78407;BME280;67692;51.074;-1.790;2023-11-19T06:11:39;100263.41;;;10.55;98.15
78407;BME280;67692;51.074;-1.790;2023-11-19T06:14:06;100262.59;;;10.55;97.78
78407;BME280;67692;51.074;-1.790;2023-11-19T06:16:33;100254.63;;;10.58;98.36
78407;BME280;67692;51.074;-1.790;2023-11-19T06:18:59;100258.16;;;10.57;97.95
78407;BME280;67692;51.074;-1.790;2023-11-19T06:21:26;100278.38;;;10.52;97.85
78407;BME280;67692;51.074;-1.790;2023-11-19T06:23:52;100284.25;;;10.54;97.87
78407;BME280;67692;51.074;-1.790;2023-11-19T06:26:19;100290.38;;;10.53;97.70
78407;BME280;67692;51.074;-1.790;2023-11-19T06:28:48;100295.66;;;10.51;97.50
78407;BME280;67692;51.074;-1.790;2023-11-19T06:31:15;100297.56;;;10.49;97.69
78407;BME280;67692;51.074;-1.790;2023-11-19T06:33:42;100285.06;;;10.54;97.70
78407;BME280;67692;51.074;-1.790;2023-11-19T06:36:09;100281.47;;;10.57;98.46
78407;BME280;67692;51.074;-1.790;2023-11-19T06:38:35;100275.53;;;10.55;98.18
78407;BME280;67692;51.074;-1.790;2023-11-19T06:41:07;100288.97;;;10.60;98.42
78407;BME280;67692;51.074;-1.790;2023-11-19T06:43:33;100284.03;;;10.57;98.00
78407;BME280;67692;51.074;-1.790;2023-11-19T06:46:01;100288.41;;;10.56;98.72
78407;BME280;67692;51.074;-1.790;2023-11-19T06:48:31;100280.41;;;10.59;97.95
78407;BME280;67692;51.074;-1.790;2023-11-19T06:50:57;100282.88;;;10.61;98.58
78407;BME280;67692;51.074;-1.790;2023-11-19T06:53:24;100270.75;;;10.61;97.78
78407;BME280;67692;51.074;-1.790;2023-11-19T06:55:50;100265.81;;;10.58;98.05
78407;BME280;67692;51.074;-1.790;2023-11-19T06:58:17;100275.34;;;10.58;98.17
78407;BME280;67692;51.074;-1.790;2023-11-19T07:00:43;100281.22;;;10.60;98.04
78407;BME280;67692;51.074;-1.790;2023-11-19T07:03:13;100280.50;;;10.58;98.44
78407;BME280;67692;51.074;-1.790;2023-11-19T07:05:41;100282.16;;;10.59;99.03
78407;BME280;67692;51.074;-1.790;2023-11-19T07:08:09;100290.63;;;10.61;98.34
78407;BME280;67692;51.074;-1.790;2023-11-19T07:10:36;100294.88;;;10.62;98.03
78407;BME280;67692;51.074;-1.790;2023-11-19T07:13:03;100301.56;;;10.64;98.07
78407;BME280;67692;51.074;-1.790;2023-11-19T07:15:31;100311.09;;;10.64;98.41
78407;BME280;67692;51.074;-1.790;2023-11-19T07:17:57;100310.41;;;10.62;98.69
78407;BME280;67692;51.074;-1.790;2023-11-19T07:20:25;100316.75;;;10.58;98.75
78407;BME280;67692;51.074;-1.790;2023-11-19T07:22:53;100308.25;;;10.56;100.00
78407;BME280;67692;51.074;-1.790;2023-11-19T07:25:20;100311.78;;;10.55;99.77
78407;BME280;67692;51.074;-1.790;2023-11-19T07:27:46;100303.06;;;10.56;99.48
78407;BME280;67692;51.074;-1.790;2023-11-19T07:30:14;100312.97;;;10.51;100.00
78407;BME280;67692;51.074;-1.790;2023-11-19T07:32:41;100300.25;;;10.48;100.00
78407;BME280;67692;51.074;-1.790;2023-11-19T07:35:08;100302.84;;;10.48;100.00
78407;BME280;67692;51.074;-1.790;2023-11-19T07:37:36;100311.56;;;10.47;100.00
78407;BME280;67692;51.074;-1.790;2023-11-19T07:40:03;100312.03;;;10.52;100.00
78407;BME280;67692;51.074;-1.790;2023-11-19T07:42:30;100307.81;;;10.62;99.45
78407;BME280;67692;51.074;-1.790;2023-11-19T07:44:56;100309.22;;;10.66;99.73
78407;BME280;67692;51.074;-1.790;2023-11-19T07:47:23;100316.53;;;10.72;99.90
78407;BME280;67692;51.074;-1.790;2023-11-19T07:49:50;100306.06;;;10.73;99.79
78407;BME280;67692;51.074;-1.790;2023-11-19T07:52:16;100308.53;;;10.75;100.00
78407;BME280;67692;51.074;-1.790;2023-11-19T07:54:44;100299.13;;;10.74;100.00
78407;BME280;67692;51.074;-1.790;2023-11-19T07:57:11;100293.00;;;10.75;100.00
78407;BME280;67692;51.074;-1.790;2023-11-19T07:59:38;100298.19;;;10.75;100.00
78407;BME280;67692;51.074;-1.790;2023-11-19T08:02:05;100294.78;;;10.75;100.00
78407;BME280;67692;51.074;-1.790;2023-11-19T08:04:32;100298.88;;;10.77;100.00
78407;BME280;67692;51.074;-1.790;2023-11-19T08:06:58;100303.72;;;10.82;100.00
78407;BME280;67692;51.074;-1.790;2023-11-19T08:09:25;100296.63;;;10.84;100.00
78407;BME280;67692;51.074;-1.790;2023-11-19T08:11:53;100306.66;;;10.88;100.00
78407;BME280;67692;51.074;-1.790;2023-11-19T08:14:21;100301.00;;;10.94;100.00
78407;BME280;67692;51.074;-1.790;2023-11-19T08:16:48;100298.06;;;10.99;100.00
78407;BME280;67692;51.074;-1.790;2023-11-19T08:19:15;100304.78;;;11.01;100.00
78407;BME280;67692;51.074;-1.790;2023-11-19T08:21:41;100311.13;;;11.09;100.00
78407;BME280;67692;51.074;-1.790;2023-11-19T08:24:08;100322.69;;;11.16;100.00
78407;BME280;67692;51.074;-1.790;2023-11-19T08:26:34;100326.69;;;11.20;100.00
78407;BME280;67692;51.074;-1.790;2023-11-19T08:29:02;100327.16;;;11.25;100.00
78407;BME280;67692;51.074;-1.790;2023-11-19T08:31:29;100324.31;;;11.28;99.49
78407;BME280;67692;51.074;-1.790;2023-11-19T08:33:56;100335.63;;;11.27;98.38
78407;BME280;67692;51.074;-1.790;2023-11-19T08:36:22;100337.19;;;11.29;97.99
78407;BME280;67692;51.074;-1.790;2023-11-19T08:38:49;100339.28;;;11.36;98.13
78407;BME280;67692;51.074;-1.790;2023-11-19T08:41:17;100339.75;;;11.41;97.90
78407;BME280;67692;51.074;-1.790;2023-11-19T08:43:44;100338.56;;;11.45;97.21
78407;BME280;67692;51.074;-1.790;2023-11-19T08:46:12;100334.41;;;11.53;96.47
78407;BME280;67692;51.074;-1.790;2023-11-19T08:48:39;100322.28;;;11.54;95.42
78407;BME280;67692;51.074;-1.790;2023-11-19T08:51:06;100326.41;;;11.56;95.88
78407;BME280;67692;51.074;-1.790;2023-11-19T08:53:32;100310.84;;;11.56;95.34
78407;BME280;67692;51.074;-1.790;2023-11-19T08:55:59;100311.34;;;11.50;94.45
78407;BME280;67692;51.074;-1.790;2023-11-19T08:58:25;100320.19;;;11.48;94.31
78407;BME280;67692;51.074;-1.790;2023-11-19T09:00:52;100313.59;;;11.44;94.85
78407;BME280;67692;51.074;-1.790;2023-11-19T09:03:20;100315.13;;;11.46;93.37
78407;BME280;67692;51.074;-1.790;2023-11-19T09:05:46;100309.44;;;11.41;93.62
78407;BME280;67692;51.074;-1.790;2023-11-19T09:08:13;100302.63;;;11.40;93.63
78407;BME280;67692;51.074;-1.790;2023-11-19T09:10:39;100301.09;;;11.38;94.04
78407;BME280;67692;51.074;-1.790;2023-11-19T09:13:06;100306.16;;;11.39;94.56
78407;BME280;67692;51.074;-1.790;2023-11-19T09:15:33;100299.31;;;11.38;94.74
78407;BME280;67692;51.074;-1.790;2023-11-19T09:17:59;100307.34;;;11.35;94.88
78407;BME280;67692;51.074;-1.790;2023-11-19T09:20:27;100298.06;;;11.32;94.57
78407;BME280;67692;51.074;-1.790;2023-11-19T09:22:57;100310.88;;;11.34;94.31
78407;BME280;67692;51.074;-1.790;2023-11-19T09:25:24;100314.19;;;11.36;94.11
78407;BME280;67692;51.074;-1.790;2023-11-19T09:27:51;100316.88;;;11.46;93.68
78407;BME280;67692;51.074;-1.790;2023-11-19T09:30:17;100306.47;;;11.57;93.65
78407;BME280;67692;51.074;-1.790;2023-11-19T09:32:44;100304.34;;;11.62;93.45
78407;BME280;67692;51.074;-1.790;2023-11-19T09:35:10;100304.34;;;11.73;93.85
78407;BME280;67692;51.074;-1.790;2023-11-19T09:37:41;100294.31;;;11.80;94.40
78407;BME280;67692;51.074;-1.790;2023-11-19T09:40:08;100306.78;;;11.86;94.92
78407;BME280;67692;51.074;-1.790;2023-11-19T09:42:41;100306.78;;;11.86;95.35
78407;BME280;67692;51.074;-1.790;2023-11-19T09:45:13;100313.38;;;11.90;95.77
78407;BME280;67692;51.074;-1.790;2023-11-19T09:47:42;100311.50;;;11.92;96.81
78407;BME280;67692;51.074;-1.790;2023-11-19T09:50:10;100293.88;;;11.96;96.81
78407;BME280;67692;51.074;-1.790;2023-11-19T09:52:41;100303.31;;;11.97;97.21
78407;BME280;67692;51.074;-1.790;2023-11-19T09:55:08;100309.34;;;11.97;97.66
78407;BME280;67692;51.074;-1.790;2023-11-19T09:57:35;100316.78;;;12.02;97.39
78407;BME280;67692;51.074;-1.790;2023-11-19T10:00:05;100311.31;;;12.05;98.02
78407;BME280;67692;51.074;-1.790;2023-11-19T10:02:33;100315.69;;;12.04;96.74
78407;BME280;67692;51.074;-1.790;2023-11-19T10:05:04;100305.88;;;12.08;96.08
78407;BME280;67692;51.074;-1.790;2023-11-19T10:07:32;100294.53;;;12.09;94.91
78407;BME280;67692;51.074;-1.790;2023-11-19T10:10:00;100302.19;;;12.10;94.40
78407;BME280;67692;51.074;-1.790;2023-11-19T10:12:29;100300.91;;;12.16;94.18
78407;BME280;67692;51.074;-1.790;2023-11-19T10:14:57;100310.34;;;12.17;93.86
78407;BME280;67692;51.074;-1.790;2023-11-19T10:17:27;100308.31;;;12.20;94.33
78407;BME280;67692;51.074;-1.790;2023-11-19T10:19:54;100311.59;;;12.23;94.21
78407;BME280;67692;51.074;-1.790;2023-11-19T10:22:22;100324.56;;;12.23;95.17
78407;BME280;67692;51.074;-1.790;2023-11-19T10:24:49;100316.41;;;12.27;93.78
78407;BME280;67692;51.074;-1.790;2023-11-19T10:27:17;100307.56;;;12.30;94.16
78407;BME280;67692;51.074;-1.790;2023-11-19T10:29:45;100306.34;;;12.34;94.72
78407;BME280;67692;51.074;-1.790;2023-11-19T10:32:12;100316.22;;;12.40;94.51
78407;BME280;67692;51.074;-1.790;2023-11-19T10:34:40;100318.69;;;12.41;94.83
78407;BME280;67692;51.074;-1.790;2023-11-19T10:37:07;100319.38;;;12.43;94.65
78407;BME280;67692;51.074;-1.790;2023-11-19T10:39:51;100306.28;;;12.45;94.18
78407;BME280;67692;51.074;-1.790;2023-11-19T10:42:21;100311.59;;;12.43;94.39
78407;BME280;67692;51.074;-1.790;2023-11-19T10:44:48;100306.78;;;12.39;94.13
78407;BME280;67692;51.074;-1.790;2023-11-19T10:47:14;100305.56;;;12.43;95.02
78407;BME280;67692;51.074;-1.790;2023-11-19T10:49:43;100314.31;;;12.42;94.11
78407;BME280;67692;51.074;-1.790;2023-11-19T10:52:11;100308.63;;;12.48;94.20
78407;BME280;67692;51.074;-1.790;2023-11-19T10:54:44;100316.72;;;12.55;93.77
78407;BME280;67692;51.074;-1.790;2023-11-19T10:57:19;100310.00;;;12.52;93.80
78407;BME280;67692;51.074;-1.790;2023-11-19T10:59:47;100307.81;;;12.47;93.83
78407;BME280;67692;51.074;-1.790;2023-11-19T11:02:19;100317.13;;;12.50;94.40
78407;BME280;67692;51.074;-1.790;2023-11-19T11:04:49;100311.91;;;12.50;93.69
78407;BME280;67692;51.074;-1.790;2023-11-19T11:07:20;100318.75;;;12.51;93.86
78407;BME280;67692;51.074;-1.790;2023-11-19T11:09:47;100319.44;;;12.53;94.66
78407;BME280;67692;51.074;-1.790;2023-11-19T11:12:16;100311.25;;;12.58;94.73
78407;BME280;67692;51.074;-1.790;2023-11-19T11:14:44;100310.22;;;12.60;94.79
78407;BME280;67692;51.074;-1.790;2023-11-19T11:17:17;100301.59;;;12.60;94.56
78407;BME280;67692;51.074;-1.790;2023-11-19T11:19:44;100295.31;;;12.62;93.90
78407;BME280;67692;51.074;-1.790;2023-11-19T11:22:11;100303.81;;;12.64;93.68
78407;BME280;67692;51.074;-1.790;2023-11-19T11:24:51;100293.97;;;12.68;94.76
78407;BME280;67692;51.074;-1.790;2023-11-19T11:27:42;100296.63;;;12.77;93.99
78407;BME280;67692;51.074;-1.790;2023-11-19T11:30:28;100289.94;;;12.85;93.28
78407;BME280;67692;51.074;-1.790;2023-11-19T11:33:06;100286.03;;;12.90;93.66
78407;BME280;67692;51.074;-1.790;2023-11-19T11:35:45;100278.50;;;12.97;94.07
78407;BME280;67692;51.074;-1.790;2023-11-19T11:38:21;100293.00;;;12.99;93.30
78407;BME280;67692;51.074;-1.790;2023-11-19T11:41:15;100279.88;;;13.01;93.38
78407;BME280;67692;51.074;-1.790;2023-11-19T11:43:47;100286.75;;;13.02;93.79
78407;BME280;67692;51.074;-1.790;2023-11-19T11:49:25;100273.03;;;13.00;93.82
78407;BME280;67692;51.074;-1.790;2023-11-19T11:51:59;100267.28;;;12.96;93.22
78407;BME280;67692;51.074;-1.790;2023-11-19T11:54:27;100257.31;;;13.01;93.28
78407;BME280;67692;51.074;-1.790;2023-11-19T11:57:16;100270.88;;;13.05;92.69
78407;BME280;67692;51.074;-1.790;2023-11-19T11:59:46;100274.72;;;13.10;93.21
78407;BME280;67692;51.074;-1.790;2023-11-19T12:02:15;100271.16;;;13.11;92.27
78407;BME280;67692;51.074;-1.790;2023-11-19T12:04:46;100272.25;;;13.09;92.78
78407;BME280;67692;51.074;-1.790;2023-11-19T12:07:16;100274.72;;;13.10;93.08
78407;BME280;67692;51.074;-1.790;2023-11-19T12:09:47;100277.88;;;13.14;92.75
78407;BME280;67692;51.074;-1.790;2023-11-19T12:12:21;100267.88;;;13.09;93.33
78407;BME280;67692;51.074;-1.790;2023-11-19T12:15:05;100263.50;;;13.10;92.71
78407;BME280;67692;51.074;-1.790;2023-11-19T12:17:43;100271.16;;;13.11;92.54
78407;BME280;67692;51.074;-1.790;2023-11-19T12:20:16;100269.53;;;13.10;93.08
78407;BME280;67692;51.074;-1.790;2023-11-19T12:22:44;100262.41;;;13.13;92.74
78407;BME280;67692;51.074;-1.790;2023-11-19T12:25:13;100272.00;;;13.12;93.34
78407;BME280;67692;51.074;-1.790;2023-11-19T12:27:40;100261.09;;;13.18;92.81
78407;BME280;67692;51.074;-1.790;2023-11-19T12:30:08;100266.19;;;13.20;92.68
78407;BME280;67692;51.074;-1.790;2023-11-19T12:32:38;100249.03;;;13.17;93.18
78407;BME280;67692;51.074;-1.790;2023-11-19T12:35:06;100255.38;;;13.24;93.05
78407;BME280;67692;51.074;-1.790;2023-11-19T12:37:43;100257.56;;;13.29;92.53
78407;BME280;67692;51.074;-1.790;2023-11-19T12:40:14;100248.25;;;13.26;92.99
78407;BME280;67692;51.074;-1.790;2023-11-19T12:42:41;100255.53;;;13.32;92.83